CheckWX is a tool to help pilots better visualize weather data.  It is not intended as a substitute for an official pre-flight weather briefing.

06:07:13 UTC

UBBB METAR
Heydar Aliyev International Airport
Baku, Azerbaijan
Current

37 mins ago

UBBB 260530Z 01015KT CAVOK 33/18 Q1012 R88/D NOSIG
Observed
Jun-26 @ 05:30 UTC
Wind
  • 010° at 15 KTS
Visibility
10,000+ meters
Flight Rules
VFR
Cloud Levels
  • Clear skies
Temperature
33°C / 91°F
Dewpoint
18°C / 64°F
Heat Index
34°C / 93°F
Humidity
41%
Altimeter
29.88" Hg
Pressure
1011.92 hPa
Previous

1 hour ago

UBBB 260500Z 36016KT CAVOK 32/19 Q1012 R88/D NOSIG
Observed
Jun-26 @ 05:00 UTC
Wind
  • 360° at 16 KTS
Visibility
10,000+ meters
Flight Rules
VFR
Cloud Levels
  • Clear skies
Temperature
32°C / 90°F
Dewpoint
19°C / 66°F
Heat Index
34°C / 93°F
Humidity
46%
Altimeter
29.88" Hg
Pressure
1011.92 hPa
Previous

2 hours ago

UBBB 260430Z 01013KT CAVOK 32/19 Q1012 R88/D NOSIG
Observed
Jun-26 @ 04:30 UTC
Wind
  • 010° at 13 KTS
Visibility
10,000+ meters
Flight Rules
VFR
Cloud Levels
  • Clear skies
Temperature
32°C / 90°F
Dewpoint
19°C / 66°F
Heat Index
34°C / 93°F
Humidity
46%
Altimeter
29.88" Hg
Pressure
1011.92 hPa